sensor_id;sensor_type;location;lat;lon;timestamp;P1;durP1;ratioP1;P2;durP2;ratioP2
9256;SDS011;4665;51.368;6.782;2023-12-14T00:00:31;21.97;;;12.40;;
9256;SDS011;4665;51.368;6.782;2023-12-14T00:02:56;23.77;;;12.47;;
9256;SDS011;4665;51.368;6.782;2023-12-14T00:05:21;23.40;;;12.77;;
9256;SDS011;4665;51.368;6.782;2023-12-14T00:07:47;19.93;;;11.17;;
9256;SDS011;4665;51.368;6.782;2023-12-14T00:10:12;22.67;;;12.87;;
9256;SDS011;4665;51.368;6.782;2023-12-14T00:12:37;20.37;;;12.80;;
9256;SDS011;4665;51.368;6.782;2023-12-14T00:15:03;20.63;;;12.50;;
9256;SDS011;4665;51.368;6.782;2023-12-14T00:17:28;27.83;;;13.70;;
9256;SDS011;4665;51.368;6.782;2023-12-14T00:19:53;27.90;;;12.37;;
9256;SDS011;4665;51.368;6.782;2023-12-14T00:22:18;22.97;;;12.23;;
9256;SDS011;4665;51.368;6.782;2023-12-14T00:24:44;26.33;;;12.40;;
9256;SDS011;4665;51.368;6.782;2023-12-14T00:27:09;20.03;;;12.23;;
9256;SDS011;4665;51.368;6.782;2023-12-14T00:29:34;32.07;;;13.27;;
9256;SDS011;4665;51.368;6.782;2023-12-14T00:31:59;26.83;;;13.53;;
9256;SDS011;4665;51.368;6.782;2023-12-14T00:34:24;27.80;;;13.43;;
9256;SDS011;4665;51.368;6.782;2023-12-14T00:36:50;25.67;;;14.07;;
9256;SDS011;4665;51.368;6.782;2023-12-14T00:39:15;25.43;;;12.17;;
9256;SDS011;4665;51.368;6.782;2023-12-14T00:41:40;23.53;;;11.20;;
9256;SDS011;4665;51.368;6.782;2023-12-14T00:44:06;19.13;;;10.43;;
9256;SDS011;4665;51.368;6.782;2023-12-14T00:46:31;20.83;;;10.40;;
9256;SDS011;4665;51.368;6.782;2023-12-14T00:48:56;17.37;;;10.20;;
9256;SDS011;4665;51.368;6.782;2023-12-14T00:51:21;19.13;;;9.67;;
9256;SDS011;4665;51.368;6.782;2023-12-14T00:53:47;15.20;;;9.30;;
9256;SDS011;4665;51.368;6.782;2023-12-14T00:56:12;15.87;;;9.40;;
9256;SDS011;4665;51.368;6.782;2023-12-14T00:58:37;18.57;;;9.80;;
9256;SDS011;4665;51.368;6.782;2023-12-14T01:01:02;21.77;;;10.03;;
9256;SDS011;4665;51.368;6.782;2023-12-14T01:03:28;16.10;;;8.97;;
9256;SDS011;4665;51.368;6.782;2023-12-14T01:05:53;20.00;;;10.03;;
9256;SDS011;4665;51.368;6.782;2023-12-14T01:08:18;19.20;;;9.73;;
9256;SDS011;4665;51.368;6.782;2023-12-14T01:10:44;17.03;;;7.97;;
9256;SDS011;4665;51.368;6.782;2023-12-14T01:13:09;14.73;;;7.70;;
9256;SDS011;4665;51.368;6.782;2023-12-14T01:15:34;12.90;;;7.50;;
9256;SDS011;4665;51.368;6.782;2023-12-14T01:17:59;13.20;;;7.83;;
9256;SDS011;4665;51.368;6.782;2023-12-14T01:20:25;13.10;;;7.80;;
9256;SDS011;4665;51.368;6.782;2023-12-14T01:22:50;13.17;;;7.53;;
9256;SDS011;4665;51.368;6.782;2023-12-14T01:25:15;12.57;;;7.70;;
9256;SDS011;4665;51.368;6.782;2023-12-14T01:27:40;10.33;;;7.60;;
9256;SDS011;4665;51.368;6.782;2023-12-14T01:30:06;16.97;;;7.50;;
9256;SDS011;4665;51.368;6.782;2023-12-14T01:32:31;11.97;;;6.97;;
9256;SDS011;4665;51.368;6.782;2023-12-14T01:34:56;12.47;;;7.73;;
9256;SDS011;4665;51.368;6.782;2023-12-14T01:37:22;8.60;;;6.50;;
9256;SDS011;4665;51.368;6.782;2023-12-14T01:39:47;8.43;;;6.30;;
9256;SDS011;4665;51.368;6.782;2023-12-14T01:42:12;9.43;;;6.30;;
9256;SDS011;4665;51.368;6.782;2023-12-14T01:44:38;7.37;;;5.97;;
9256;SDS011;4665;51.368;6.782;2023-12-14T01:47:03;8.43;;;6.47;;
9256;SDS011;4665;51.368;6.782;2023-12-14T01:49:29;8.23;;;5.80;;
9256;SDS011;4665;51.368;6.782;2023-12-14T01:51:54;8.77;;;5.90;;
9256;SDS011;4665;51.368;6.782;2023-12-14T01:54:19;7.30;;;5.63;;
9256;SDS011;4665;51.368;6.782;2023-12-14T01:56:44;7.47;;;5.40;;
9256;SDS011;4665;51.368;6.782;2023-12-14T01:59:11;10.23;;;6.87;;
9256;SDS011;4665;51.368;6.782;2023-12-14T02:01:43;10.23;;;7.60;;
9256;SDS011;4665;51.368;6.782;2023-12-14T02:04:09;12.53;;;8.00;;
9256;SDS011;4665;51.368;6.782;2023-12-14T02:06:35;11.17;;;7.63;;
9256;SDS011;4665;51.368;6.782;2023-12-14T02:09:00;11.97;;;8.40;;
9256;SDS011;4665;51.368;6.782;2023-12-14T02:11:25;14.50;;;8.47;;
9256;SDS011;4665;51.368;6.782;2023-12-14T02:13:50;13.13;;;8.37;;
9256;SDS011;4665;51.368;6.782;2023-12-14T02:16:16;12.20;;;8.27;;
9256;SDS011;4665;51.368;6.782;2023-12-14T02:18:41;11.83;;;8.13;;
9256;SDS011;4665;51.368;6.782;2023-12-14T02:21:06;13.27;;;8.50;;
9256;SDS011;4665;51.368;6.782;2023-12-14T02:23:31;13.17;;;8.77;;
9256;SDS011;4665;51.368;6.782;2023-12-14T02:25:56;15.30;;;9.03;;
9256;SDS011;4665;51.368;6.782;2023-12-14T02:28:22;13.57;;;8.50;;
9256;SDS011;4665;51.368;6.782;2023-12-14T02:30:47;14.10;;;9.43;;
9256;SDS011;4665;51.368;6.782;2023-12-14T02:33:12;16.53;;;9.80;;
9256;SDS011;4665;51.368;6.782;2023-12-14T02:35:37;14.20;;;8.57;;
9256;SDS011;4665;51.368;6.782;2023-12-14T02:38:03;16.80;;;9.63;;
9256;SDS011;4665;51.368;6.782;2023-12-14T02:40:28;16.90;;;9.50;;
9256;SDS011;4665;51.368;6.782;2023-12-14T02:42:53;14.00;;;9.53;;
9256;SDS011;4665;51.368;6.782;2023-12-14T02:45:18;15.63;;;9.57;;
9256;SDS011;4665;51.368;6.782;2023-12-14T02:47:43;16.27;;;10.63;;
9256;SDS011;4665;51.368;6.782;2023-12-14T02:50:09;15.40;;;9.97;;
9256;SDS011;4665;51.368;6.782;2023-12-14T02:52:34;14.30;;;9.73;;
9256;SDS011;4665;51.368;6.782;2023-12-14T02:54:59;15.93;;;10.70;;
9256;SDS011;4665;51.368;6.782;2023-12-14T02:57:25;15.03;;;10.10;;
9256;SDS011;4665;51.368;6.782;2023-12-14T02:59:50;19.77;;;11.63;;
9256;SDS011;4665;51.368;6.782;2023-12-14T03:02:15;19.73;;;11.77;;
9256;SDS011;4665;51.368;6.782;2023-12-14T03:04:41;19.43;;;11.80;;
9256;SDS011;4665;51.368;6.782;2023-12-14T03:07:06;22.23;;;11.37;;
9256;SDS011;4665;51.368;6.782;2023-12-14T03:09:31;17.40;;;10.53;;
9256;SDS011;4665;51.368;6.782;2023-12-14T03:11:57;17.60;;;10.50;;
9256;SDS011;4665;51.368;6.782;2023-12-14T03:14:22;16.93;;;10.03;;
9256;SDS011;4665;51.368;6.782;2023-12-14T03:16:48;16.40;;;10.70;;
9256;SDS011;4665;51.368;6.782;2023-12-14T03:19:14;16.53;;;10.17;;
9256;SDS011;4665;51.368;6.782;2023-12-14T03:21:40;17.13;;;10.33;;
9256;SDS011;4665;51.368;6.782;2023-12-14T03:24:05;17.67;;;10.63;;
9256;SDS011;4665;51.368;6.782;2023-12-14T03:26:30;17.07;;;9.77;;
9256;SDS011;4665;51.368;6.782;2023-12-14T03:28:55;14.27;;;8.70;;
9256;SDS011;4665;51.368;6.782;2023-12-14T03:31:21;15.90;;;9.33;;
9256;SDS011;4665;51.368;6.782;2023-12-14T03:33:46;15.63;;;9.17;;
9256;SDS011;4665;51.368;6.782;2023-12-14T03:36:11;16.63;;;9.87;;
9256;SDS011;4665;51.368;6.782;2023-12-14T03:38:37;18.80;;;10.07;;
9256;SDS011;4665;51.368;6.782;2023-12-14T03:41:02;15.43;;;8.57;;
9256;SDS011;4665;51.368;6.782;2023-12-14T03:43:27;14.10;;;8.63;;
9256;SDS011;4665;51.368;6.782;2023-12-14T03:45:52;16.30;;;8.70;;
9256;SDS011;4665;51.368;6.782;2023-12-14T03:48:18;17.67;;;8.87;;
9256;SDS011;4665;51.368;6.782;2023-12-14T03:50:43;14.53;;;8.40;;
9256;SDS011;4665;51.368;6.782;2023-12-14T03:53:09;14.27;;;8.63;;
9256;SDS011;4665;51.368;6.782;2023-12-14T03:55:34;16.17;;;8.53;;
9256;SDS011;4665;51.368;6.782;2023-12-14T03:57:59;12.60;;;8.13;;
9256;SDS011;4665;51.368;6.782;2023-12-14T04:00:24;15.07;;;9.50;;
9256;SDS011;4665;51.368;6.782;2023-12-14T04:02:50;18.53;;;9.57;;
9256;SDS011;4665;51.368;6.782;2023-12-14T04:05:15;32.13;;;13.77;;
9256;SDS011;4665;51.368;6.782;2023-12-14T04:07:40;22.97;;;11.40;;
9256;SDS011;4665;51.368;6.782;2023-12-14T04:10:09;20.37;;;11.07;;
9256;SDS011;4665;51.368;6.782;2023-12-14T04:12:34;18.07;;;9.53;;
9256;SDS011;4665;51.368;6.782;2023-12-14T04:15:00;18.03;;;11.37;;
9256;SDS011;4665;51.368;6.782;2023-12-14T04:17:25;19.43;;;11.07;;
9256;SDS011;4665;51.368;6.782;2023-12-14T04:19:50;25.67;;;13.17;;
9256;SDS011;4665;51.368;6.782;2023-12-14T04:22:16;24.40;;;12.17;;
9256;SDS011;4665;51.368;6.782;2023-12-14T04:24:41;25.83;;;13.40;;
9256;SDS011;4665;51.368;6.782;2023-12-14T04:27:06;21.57;;;12.27;;
9256;SDS011;4665;51.368;6.782;2023-12-14T04:29:31;22.60;;;12.27;;
9256;SDS011;4665;51.368;6.782;2023-12-14T04:31:57;22.63;;;11.67;;
9256;SDS011;4665;51.368;6.782;2023-12-14T04:34:22;19.83;;;10.53;;
9256;SDS011;4665;51.368;6.782;2023-12-14T04:36:47;22.50;;;12.10;;
9256;SDS011;4665;51.368;6.782;2023-12-14T04:39:13;21.73;;;11.67;;
9256;SDS011;4665;51.368;6.782;2023-12-14T04:41:38;21.00;;;12.03;;
9256;SDS011;4665;51.368;6.782;2023-12-14T04:44:03;22.30;;;11.43;;
9256;SDS011;4665;51.368;6.782;2023-12-14T04:46:29;20.33;;;10.97;;
9256;SDS011;4665;51.368;6.782;2023-12-14T04:48:54;25.20;;;12.03;;
9256;SDS011;4665;51.368;6.782;2023-12-14T04:51:20;20.83;;;11.67;;
9256;SDS011;4665;51.368;6.782;2023-12-14T04:53:45;21.67;;;11.80;;
9256;SDS011;4665;51.368;6.782;2023-12-14T04:56:10;25.40;;;12.63;;
9256;SDS011;4665;51.368;6.782;2023-12-14T04:58:36;25.20;;;12.63;;
9256;SDS011;4665;51.368;6.782;2023-12-14T05:01:01;21.73;;;11.57;;
9256;SDS011;4665;51.368;6.782;2023-12-14T05:03:27;23.67;;;11.57;;
9256;SDS011;4665;51.368;6.782;2023-12-14T05:05:52;20.77;;;12.27;;
9256;SDS011;4665;51.368;6.782;2023-12-14T05:08:18;20.37;;;11.67;;
9256;SDS011;4665;51.368;6.782;2023-12-14T05:10:43;23.33;;;11.70;;
9256;SDS011;4665;51.368;6.782;2023-12-14T05:13:08;21.47;;;11.40;;
9256;SDS011;4665;51.368;6.782;2023-12-14T05:15:33;23.23;;;12.00;;
9256;SDS011;4665;51.368;6.782;2023-12-14T05:17:59;22.50;;;11.17;;
9256;SDS011;4665;51.368;6.782;2023-12-14T05:20:24;19.20;;;10.73;;
9256;SDS011;4665;51.368;6.782;2023-12-14T05:22:49;21.60;;;10.00;;
9256;SDS011;4665;51.368;6.782;2023-12-14T05:25:14;18.30;;;10.43;;
9256;SDS011;4665;51.368;6.782;2023-12-14T05:27:40;18.23;;;10.13;;
9256;SDS011;4665;51.368;6.782;2023-12-14T05:30:06;19.23;;;10.23;;
9256;SDS011;4665;51.368;6.782;2023-12-14T05:32:31;18.77;;;9.97;;
9256;SDS011;4665;51.368;6.782;2023-12-14T05:34:56;19.50;;;10.30;;
9256;SDS011;4665;51.368;6.782;2023-12-14T05:37:22;19.17;;;9.27;;
9256;SDS011;4665;51.368;6.782;2023-12-14T05:39:47;19.87;;;9.93;;
9256;SDS011;4665;51.368;6.782;2023-12-14T05:42:15;16.80;;;10.07;;
9256;SDS011;4665;51.368;6.782;2023-12-14T05:44:41;15.43;;;9.10;;
9256;SDS011;4665;51.368;6.782;2023-12-14T05:47:06;14.47;;;8.43;;
9256;SDS011;4665;51.368;6.782;2023-12-14T05:49:31;20.27;;;9.97;;
9256;SDS011;4665;51.368;6.782;2023-12-14T05:51:58;15.20;;;9.03;;
9256;SDS011;4665;51.368;6.782;2023-12-14T05:54:23;15.83;;;8.87;;
9256;SDS011;4665;51.368;6.782;2023-12-14T05:56:49;19.03;;;9.57;;
9256;SDS011;4665;51.368;6.782;2023-12-14T05:59:14;13.53;;;8.73;;
9256;SDS011;4665;51.368;6.782;2023-12-14T06:01:39;14.60;;;8.50;;
9256;SDS011;4665;51.368;6.782;2023-12-14T06:04:04;20.07;;;9.87;;
9256;SDS011;4665;51.368;6.782;2023-12-14T06:06:29;19.87;;;9.90;;
9256;SDS011;4665;51.368;6.782;2023-12-14T06:08:55;17.17;;;9.37;;
9256;SDS011;4665;51.368;6.782;2023-12-14T06:11:20;21.70;;;11.03;;
9256;SDS011;4665;51.368;6.782;2023-12-14T06:13:45;19.23;;;10.57;;
9256;SDS011;4665;51.368;6.782;2023-12-14T06:16:10;21.10;;;10.87;;
9256;SDS011;4665;51.368;6.782;2023-12-14T06:18:37;24.57;;;10.60;;
9256;SDS011;4665;51.368;6.782;2023-12-14T06:21:04;25.80;;;12.00;;
9256;SDS011;4665;51.368;6.782;2023-12-14T06:23:30;25.70;;;11.97;;
9256;SDS011;4665;51.368;6.782;2023-12-14T06:25:55;17.93;;;10.43;;
9256;SDS011;4665;51.368;6.782;2023-12-14T06:28:20;24.30;;;11.07;;
9256;SDS011;4665;51.368;6.782;2023-12-14T06:30:46;20.43;;;10.50;;
9256;SDS011;4665;51.368;6.782;2023-12-14T06:33:11;22.80;;;11.07;;
9256;SDS011;4665;51.368;6.782;2023-12-14T06:35:36;21.03;;;11.10;;
9256;SDS011;4665;51.368;6.782;2023-12-14T06:38:02;20.07;;;10.27;;
9256;SDS011;4665;51.368;6.782;2023-12-14T06:40:27;19.17;;;10.03;;
9256;SDS011;4665;51.368;6.782;2023-12-14T06:42:52;19.87;;;10.43;;
9256;SDS011;4665;51.368;6.782;2023-12-14T06:45:17;17.23;;;10.47;;
9256;SDS011;4665;51.368;6.782;2023-12-14T06:47:42;17.70;;;10.27;;
9256;SDS011;4665;51.368;6.782;2023-12-14T06:50:09;17.63;;;9.43;;
9256;SDS011;4665;51.368;6.782;2023-12-14T06:52:34;24.17;;;11.97;;
9256;SDS011;4665;51.368;6.782;2023-12-14T06:55:00;23.07;;;11.77;;
9256;SDS011;4665;51.368;6.782;2023-12-14T06:57:25;25.57;;;12.83;;
9256;SDS011;4665;51.368;6.782;2023-12-14T06:59:50;27.90;;;12.87;;
9256;SDS011;4665;51.368;6.782;2023-12-14T07:02:15;25.23;;;11.53;;
9256;SDS011;4665;51.368;6.782;2023-12-14T07:04:41;25.73;;;13.43;;
9256;SDS011;4665;51.368;6.782;2023-12-14T07:07:06;26.37;;;12.47;;
9256;SDS011;4665;51.368;6.782;2023-12-14T07:09:31;28.97;;;14.13;;
9256;SDS011;4665;51.368;6.782;2023-12-14T07:11:57;27.00;;;13.57;;
9256;SDS011;4665;51.368;6.782;2023-12-14T07:14:22;27.83;;;14.10;;
9256;SDS011;4665;51.368;6.782;2023-12-14T07:16:48;22.03;;;12.00;;
9256;SDS011;4665;51.368;6.782;2023-12-14T07:19:13;24.60;;;13.70;;
9256;SDS011;4665;51.368;6.782;2023-12-14T07:21:38;23.83;;;12.23;;
9256;SDS011;4665;51.368;6.782;2023-12-14T07:24:04;26.63;;;12.77;;
9256;SDS011;4665;51.368;6.782;2023-12-14T07:26:29;27.33;;;15.07;;
9256;SDS011;4665;51.368;6.782;2023-12-14T07:28:54;25.87;;;13.70;;
9256;SDS011;4665;51.368;6.782;2023-12-14T07:31:19;29.73;;;14.57;;
9256;SDS011;4665;51.368;6.782;2023-12-14T07:33:45;29.47;;;14.73;;
9256;SDS011;4665;51.368;6.782;2023-12-14T07:36:10;34.27;;;16.47;;
9256;SDS011;4665;51.368;6.782;2023-12-14T07:38:35;31.33;;;16.27;;
9256;SDS011;4665;51.368;6.782;2023-12-14T07:41:01;30.23;;;17.03;;
9256;SDS011;4665;51.368;6.782;2023-12-14T07:43:26;37.43;;;16.87;;
9256;SDS011;4665;51.368;6.782;2023-12-14T07:45:51;34.67;;;17.87;;
9256;SDS011;4665;51.368;6.782;2023-12-14T07:48:16;35.47;;;16.00;;
9256;SDS011;4665;51.368;6.782;2023-12-14T07:50:41;35.57;;;16.10;;
9256;SDS011;4665;51.368;6.782;2023-12-14T07:53:07;35.57;;;17.23;;
9256;SDS011;4665;51.368;6.782;2023-12-14T07:55:32;34.50;;;16.73;;
9256;SDS011;4665;51.368;6.782;2023-12-14T07:57:57;37.80;;;16.90;;
9256;SDS011;4665;51.368;6.782;2023-12-14T08:00:23;33.20;;;16.37;;
9256;SDS011;4665;51.368;6.782;2023-12-14T08:02:48;30.57;;;15.77;;
9256;SDS011;4665;51.368;6.782;2023-12-14T08:05:13;26.53;;;14.70;;
9256;SDS011;4665;51.368;6.782;2023-12-14T08:07:38;32.17;;;15.10;;
9256;SDS011;4665;51.368;6.782;2023-12-14T08:10:04;37.27;;;17.00;;
9256;SDS011;4665;51.368;6.782;2023-12-14T08:12:29;34.83;;;15.97;;
9256;SDS011;4665;51.368;6.782;2023-12-14T08:14:55;30.57;;;15.70;;
9256;SDS011;4665;51.368;6.782;2023-12-14T08:17:20;30.93;;;16.27;;
9256;SDS011;4665;51.368;6.782;2023-12-14T08:19:46;33.30;;;16.70;;
9256;SDS011;4665;51.368;6.782;2023-12-14T08:22:11;33.77;;;16.57;;
9256;SDS011;4665;51.368;6.782;2023-12-14T08:24:40;31.27;;;16.73;;
9256;SDS011;4665;51.368;6.782;2023-12-14T08:27:06;31.43;;;16.17;;
9256;SDS011;4665;51.368;6.782;2023-12-14T08:29:31;31.33;;;16.93;;
9256;SDS011;4665;51.368;6.782;2023-12-14T08:31:56;29.83;;;14.70;;
9256;SDS011;4665;51.368;6.782;2023-12-14T08:34:24;30.13;;;14.97;;
9256;SDS011;4665;51.368;6.782;2023-12-14T08:36:49;27.83;;;14.30;;
9256;SDS011;4665;51.368;6.782;2023-12-14T08:39:14;26.73;;;14.30;;
9256;SDS011;4665;51.368;6.782;2023-12-14T08:41:40;29.43;;;14.67;;
9256;SDS011;4665;51.368;6.782;2023-12-14T08:44:06;30.00;;;14.60;;
9256;SDS011;4665;51.368;6.782;2023-12-14T08:46:38;25.90;;;14.30;;
9256;SDS011;4665;51.368;6.782;2023-12-14T08:49:03;27.33;;;14.60;;
9256;SDS011;4665;51.368;6.782;2023-12-14T08:51:28;23.27;;;13.70;;
9256;SDS011;4665;51.368;6.782;2023-12-14T08:53:55;26.93;;;14.30;;
9256;SDS011;4665;51.368;6.782;2023-12-14T08:56:20;22.13;;;13.27;;
9256;SDS011;4665;51.368;6.782;2023-12-14T08:58:45;25.37;;;14.27;;
9256;SDS011;4665;51.368;6.782;2023-12-14T09:01:11;28.30;;;14.73;;
9256;SDS011;4665;51.368;6.782;2023-12-14T09:03:36;25.33;;;14.63;;
9256;SDS011;4665;51.368;6.782;2023-12-14T09:06:01;25.90;;;13.33;;
9256;SDS011;4665;51.368;6.782;2023-12-14T09:08:30;25.77;;;14.23;;
9256;SDS011;4665;51.368;6.782;2023-12-14T09:10:55;22.93;;;13.47;;
9256;SDS011;4665;51.368;6.782;2023-12-14T09:13:21;28.13;;;14.23;;
9256;SDS011;4665;51.368;6.782;2023-12-14T09:15:46;22.73;;;13.07;;
9256;SDS011;4665;51.368;6.782;2023-12-14T09:18:11;24.10;;;13.60;;
9256;SDS011;4665;51.368;6.782;2023-12-14T09:20:36;23.80;;;12.50;;
9256;SDS011;4665;51.368;6.782;2023-12-14T09:23:02;21.13;;;12.33;;
9256;SDS011;4665;51.368;6.782;2023-12-14T09:25:28;20.30;;;12.10;;
9256;SDS011;4665;51.368;6.782;2023-12-14T09:27:53;21.50;;;12.10;;
9256;SDS011;4665;51.368;6.782;2023-12-14T09:30:18;22.03;;;12.90;;
9256;SDS011;4665;51.368;6.782;2023-12-14T09:32:43;19.67;;;11.70;;
9256;SDS011;4665;51.368;6.782;2023-12-14T09:35:09;22.43;;;12.97;;
9256;SDS011;4665;51.368;6.782;2023-12-14T09:37:34;20.07;;;12.17;;
9256;SDS011;4665;51.368;6.782;2023-12-14T09:40:00;27.10;;;13.03;;
9256;SDS011;4665;51.368;6.782;2023-12-14T09:42:26;19.13;;;11.53;;
9256;SDS011;4665;51.368;6.782;2023-12-14T09:44:52;20.83;;;12.20;;
9256;SDS011;4665;51.368;6.782;2023-12-14T09:47:17;22.47;;;11.63;;
9256;SDS011;4665;51.368;6.782;2023-12-14T09:49:43;23.30;;;11.90;;
9256;SDS011;4665;51.368;6.782;2023-12-14T09:52:10;21.07;;;12.00;;
9256;SDS011;4665;51.368;6.782;2023-12-14T09:54:35;19.23;;;11.67;;
9256;SDS011;4665;51.368;6.782;2023-12-14T09:57:00;18.13;;;11.37;;
9256;SDS011;4665;51.368;6.782;2023-12-14T09:59:25;17.53;;;11.23;;
9256;SDS011;4665;51.368;6.782;2023-12-14T10:01:51;19.30;;;11.43;;
9256;SDS011;4665;51.368;6.782;2023-12-14T10:04:17;21.03;;;11.30;;
9256;SDS011;4665;51.368;6.782;2023-12-14T10:06:44;20.43;;;12.03;;
9256;SDS011;4665;51.368;6.782;2023-12-14T10:09:09;15.40;;;10.23;;
9256;SDS011;4665;51.368;6.782;2023-12-14T10:11:38;20.93;;;12.30;;
9256;SDS011;4665;51.368;6.782;2023-12-14T10:16:48;19.53;;;11.80;;
9256;SDS011;4665;51.368;6.782;2023-12-14T10:19:14;19.97;;;12.10;;
9256;SDS011;4665;51.368;6.782;2023-12-14T10:21:39;18.33;;;10.77;;
9256;SDS011;4665;51.368;6.782;2023-12-14T10:24:06;17.77;;;10.83;;
9256;SDS011;4665;51.368;6.782;2023-12-14T10:26:31;17.37;;;9.90;;
9256;SDS011;4665;51.368;6.782;2023-12-14T10:28:56;18.20;;;10.07;;
9256;SDS011;4665;51.368;6.782;2023-12-14T10:31:21;17.07;;;10.67;;
9256;SDS011;4665;51.368;6.782;2023-12-14T10:33:48;16.07;;;9.17;;
9256;SDS011;4665;51.368;6.782;2023-12-14T10:36:13;13.57;;;9.20;;
9256;SDS011;4665;51.368;6.782;2023-12-14T10:38:40;11.43;;;8.27;;
9256;SDS011;4665;51.368;6.782;2023-12-14T10:41:05;14.97;;;9.33;;
9256;SDS011;4665;51.368;6.782;2023-12-14T10:43:32;12.60;;;8.60;;
9256;SDS011;4665;51.368;6.782;2023-12-14T10:45:59;12.00;;;8.03;;
9256;SDS011;4665;51.368;6.782;2023-12-14T10:48:25;11.17;;;8.40;;
9256;SDS011;4665;51.368;6.782;2023-12-14T10:50:51;14.23;;;8.43;;
9256;SDS011;4665;51.368;6.782;2023-12-14T10:53:16;10.03;;;7.50;;
9256;SDS011;4665;51.368;6.782;2023-12-14T10:55:45;13.23;;;8.03;;
9256;SDS011;4665;51.368;6.782;2023-12-14T10:58:12;10.07;;;7.00;;
9256;SDS011;4665;51.368;6.782;2023-12-14T11:00:37;12.53;;;7.20;;
9256;SDS011;4665;51.368;6.782;2023-12-14T11:03:03;11.77;;;7.37;;
9256;SDS011;4665;51.368;6.782;2023-12-14T11:05:30;11.00;;;7.57;;
9256;SDS011;4665;51.368;6.782;2023-12-14T11:07:55;10.57;;;7.37;;
9256;SDS011;4665;51.368;6.782;2023-12-14T11:10:23;12.10;;;7.97;;
9256;SDS011;4665;51.368;6.782;2023-12-14T11:13:12;11.23;;;7.47;;
9256;SDS011;4665;51.368;6.782;2023-12-14T11:15:38;11.53;;;8.03;;
9256;SDS011;4665;51.368;6.782;2023-12-14T11:23:09;10.00;;;6.77;;
9256;SDS011;4665;51.368;6.782;2023-12-14T11:25:35;11.23;;;8.20;;
9256;SDS011;4665;51.368;6.782;2023-12-14T11:28:03;12.07;;;7.50;;
9256;SDS011;4665;51.368;6.782;2023-12-14T11:30:28;10.73;;;7.07;;
9256;SDS011;4665;51.368;6.782;2023-12-14T11:32:53;12.73;;;8.03;;
9256;SDS011;4665;51.368;6.782;2023-12-14T11:35:19;10.33;;;6.77;;
9256;SDS011;4665;51.368;6.782;2023-12-14T11:37:44;9.47;;;6.87;;
9256;SDS011;4665;51.368;6.782;2023-12-14T11:40:09;9.97;;;6.20;;
9256;SDS011;4665;51.368;6.782;2023-12-14T11:42:35;10.50;;;6.17;;
9256;SDS011;4665;51.368;6.782;2023-12-14T11:45:00;9.57;;;6.17;;
9256;SDS011;4665;51.368;6.782;2023-12-14T11:47:26;7.93;;;5.60;;
9256;SDS011;4665;51.368;6.782;2023-12-14T11:49:51;9.50;;;6.23;;
9256;SDS011;4665;51.368;6.782;2023-12-14T11:52:17;7.63;;;5.53;;
9256;SDS011;4665;51.368;6.782;2023-12-14T11:54:42;9.60;;;6.00;;
9256;SDS011;4665;51.368;6.782;2023-12-14T11:57:07;11.00;;;6.50;;
9256;SDS011;4665;51.368;6.782;2023-12-14T11:59:34;7.77;;;5.43;;
9256;SDS011;4665;51.368;6.782;2023-12-14T12:02:00;9.57;;;6.23;;
9256;SDS011;4665;51.368;6.782;2023-12-14T12:04:26;8.90;;;5.77;;
9256;SDS011;4665;51.368;6.782;2023-12-14T12:06:58;8.17;;;5.80;;
9256;SDS011;4665;51.368;6.782;2023-12-14T12:09:37;7.40;;;5.33;;
9256;SDS011;4665;51.368;6.782;2023-12-14T12:12:09;7.73;;;5.53;;
9256;SDS011;4665;51.368;6.782;2023-12-14T12:14:35;7.43;;;5.23;;
9256;SDS011;4665;51.368;6.782;2023-12-14T12:17:00;7.47;;;5.67;;
9256;SDS011;4665;51.368;6.782;2023-12-14T12:19:26;7.60;;;5.70;;
9256;SDS011;4665;51.368;6.782;2023-12-14T12:21:51;7.40;;;5.50;;
9256;SDS011;4665;51.368;6.782;2023-12-14T12:24:16;8.23;;;5.37;;
9256;SDS011;4665;51.368;6.782;2023-12-14T12:26:42;7.23;;;5.50;;
9256;SDS011;4665;51.368;6.782;2023-12-14T12:29:07;10.00;;;5.40;;
9256;SDS011;4665;51.368;6.782;2023-12-14T12:31:32;8.90;;;5.77;;
9256;SDS011;4665;51.368;6.782;2023-12-14T12:33:59;7.63;;;5.30;;
9256;SDS011;4665;51.368;6.782;2023-12-14T12:36:24;8.50;;;6.03;;
9256;SDS011;4665;51.368;6.782;2023-12-14T12:38:49;8.47;;;5.37;;
9256;SDS011;4665;51.368;6.782;2023-12-14T12:41:16;6.93;;;5.40;;
9256;SDS011;4665;51.368;6.782;2023-12-14T12:43:41;10.37;;;6.23;;
9256;SDS011;4665;51.368;6.782;2023-12-14T12:46:06;8.77;;;5.53;;
9256;SDS011;4665;51.368;6.782;2023-12-14T12:48:31;8.10;;;5.87;;
9256;SDS011;4665;51.368;6.782;2023-12-14T12:50:57;9.07;;;5.97;;
9256;SDS011;4665;51.368;6.782;2023-12-14T12:53:22;7.40;;;5.70;;
9256;SDS011;4665;51.368;6.782;2023-12-14T12:55:47;7.10;;;5.70;;
9256;SDS011;4665;51.368;6.782;2023-12-14T12:58:13;7.17;;;5.43;;
9256;SDS011;4665;51.368;6.782;2023-12-14T13:00:39;8.13;;;5.20;;
9256;SDS011;4665;51.368;6.782;2023-12-14T13:03:05;6.73;;;4.50;;
9256;SDS011;4665;51.368;6.782;2023-12-14T13:05:30;5.73;;;4.37;;
9256;SDS011;4665;51.368;6.782;2023-12-14T13:07:55;9.87;;;4.70;;
9256;SDS011;4665;51.368;6.782;2023-12-14T13:10:22;5.07;;;3.87;;
9256;SDS011;4665;51.368;6.782;2023-12-14T13:12:51;4.50;;;3.57;;
9256;SDS011;4665;51.368;6.782;2023-12-14T13:15:17;7.60;;;3.57;;
9256;SDS011;4665;51.368;6.782;2023-12-14T13:17:43;5.50;;;3.70;;
9256;SDS011;4665;51.368;6.782;2023-12-14T13:20:09;4.57;;;3.57;;
9256;SDS011;4665;51.368;6.782;2023-12-14T13:22:34;4.53;;;3.27;;
9256;SDS011;4665;51.368;6.782;2023-12-14T13:25:00;5.73;;;3.87;;
9256;SDS011;4665;51.368;6.782;2023-12-14T13:27:25;3.73;;;3.30;;
9256;SDS011;4665;51.368;6.782;2023-12-14T13:29:50;5.13;;;3.80;;
9256;SDS011;4665;51.368;6.782;2023-12-14T13:32:15;5.20;;;3.50;;
9256;SDS011;4665;51.368;6.782;2023-12-14T13:34:41;4.33;;;3.73;;
9256;SDS011;4665;51.368;6.782;2023-12-14T13:37:06;4.93;;;4.00;;
9256;SDS011;4665;51.368;6.782;2023-12-14T13:39:33;4.20;;;3.80;;
9256;SDS011;4665;51.368;6.782;2023-12-14T13:42:02;5.77;;;3.83;;
9256;SDS011;4665;51.368;6.782;2023-12-14T13:44:28;3.60;;;3.13;;
9256;SDS011;4665;51.368;6.782;2023-12-14T13:46:53;5.27;;;3.90;;
9256;SDS011;4665;51.368;6.782;2023-12-14T13:49:19;5.67;;;3.97;;
9256;SDS011;4665;51.368;6.782;2023-12-14T13:51:44;5.97;;;3.90;;
9256;SDS011;4665;51.368;6.782;2023-12-14T13:54:09;4.83;;;3.03;;
9256;SDS011;4665;51.368;6.782;2023-12-14T13:56:34;5.40;;;4.00;;
9256;SDS011;4665;51.368;6.782;2023-12-14T13:59:00;5.03;;;4.17;;
9256;SDS011;4665;51.368;6.782;2023-12-14T14:01:25;4.63;;;4.13;;
9256;SDS011;4665;51.368;6.782;2023-12-14T14:03:50;5.00;;;4.13;;
9256;SDS011;4665;51.368;6.782;2023-12-14T14:06:15;5.03;;;4.00;;
9256;SDS011;4665;51.368;6.782;2023-12-14T14:08:40;4.23;;;3.80;;
9256;SDS011;4665;51.368;6.782;2023-12-14T14:11:06;5.60;;;3.90;;
9256;SDS011;4665;51.368;6.782;2023-12-14T14:13:31;5.23;;;3.83;;
9256;SDS011;4665;51.368;6.782;2023-12-14T14:15:57;4.33;;;3.93;;
9256;SDS011;4665;51.368;6.782;2023-12-14T14:18:22;5.90;;;4.13;;
9256;SDS011;4665;51.368;6.782;2023-12-14T14:20:47;5.03;;;4.10;;
9256;SDS011;4665;51.368;6.782;2023-12-14T14:23:12;4.90;;;4.27;;
9256;SDS011;4665;51.368;6.782;2023-12-14T14:25:38;4.80;;;3.80;;
9256;SDS011;4665;51.368;6.782;2023-12-14T14:28:03;5.43;;;4.43;;
9256;SDS011;4665;51.368;6.782;2023-12-14T14:30:28;5.63;;;4.33;;
9256;SDS011;4665;51.368;6.782;2023-12-14T14:32:54;6.40;;;4.97;;
9256;SDS011;4665;51.368;6.782;2023-12-14T14:35:19;6.43;;;4.70;;
9256;SDS011;4665;51.368;6.782;2023-12-14T14:37:44;5.43;;;4.60;;
9256;SDS011;4665;51.368;6.782;2023-12-14T14:40:13;5.43;;;3.83;;
9256;SDS011;4665;51.368;6.782;2023-12-14T14:42:39;6.70;;;4.73;;
9256;SDS011;4665;51.368;6.782;2023-12-14T14:45:04;6.50;;;4.60;;
9256;SDS011;4665;51.368;6.782;2023-12-14T14:47:30;7.07;;;5.17;;
9256;SDS011;4665;51.368;6.782;2023-12-14T14:49:55;6.80;;;5.13;;
9256;SDS011;4665;51.368;6.782;2023-12-14T14:52:28;5.57;;;4.57;;
9256;SDS011;4665;51.368;6.782;2023-12-14T14:54:53;5.90;;;5.27;;